CheckWX is a tool to help pilots better visualize weather data.  It is not intended as a substitute for an official pre-flight weather briefing.

12:29:32 UTC

5C1 METAR
Boerne Stage Field Airport
San Antonio, Texas, USA
Current

35 mins ago

K5C1 181155Z AUTO 02007KT 10SM CLR 05/M05 A3012 RMK AO1
Observed
Feb-18 @ 11:55 UTC
Wind
  • 020° at 7 KTS
Visibility
10 SM
Flight Rules
VFR
Cloud Levels
  • Clear skies
Temperature
C / 41°F
Dewpoint
-5°C / 23°F
Humidity
49%
Altimeter
30.12" Hg
Pressure
1020.02 hPa
Previous

55 mins ago

K5C1 181135Z AUTO 04006KT 10SM CLR 05/M05 A3010 RMK AO1
Observed
Feb-18 @ 11:35 UTC
Wind
  • 040° at 6 KTS
Visibility
10 SM
Flight Rules
VFR
Cloud Levels
  • Clear skies
Temperature
C / 41°F
Dewpoint
-5°C / 23°F
Humidity
49%
Altimeter
30.1" Hg
Pressure
1019.32 hPa
Previous

1 hour ago

K5C1 181115Z AUTO 03008KT 10SM CLR 05/M05 A3010 RMK AO1
Observed
Feb-18 @ 11:15 UTC
Wind
  • 030° at 8 KTS
Visibility
10 SM
Flight Rules
VFR
Cloud Levels
  • Clear skies
Temperature
C / 41°F
Dewpoint
-5°C / 23°F
Humidity
49%
Altimeter
30.1" Hg
Pressure
1019.32 hPa